createdAt,value
2023-02-05T00:00:28.695Z,3.90
2023-02-05T00:02:55.608Z,4.70
2023-02-05T00:05:22.534Z,4.95
2023-02-05T00:07:49.506Z,6.00
2023-02-05T00:10:17.266Z,4.70
2023-02-05T00:12:44.673Z,4.40
2023-02-05T00:15:11.716Z,4.40
2023-02-05T00:17:38.606Z,6.80
2023-02-05T00:20:06.783Z,7.10
2023-02-05T00:22:33.624Z,6.10
2023-02-05T00:25:00.519Z,3.85
2023-02-05T00:27:27.467Z,5.63
2023-02-05T00:29:54.373Z,3.80
2023-02-05T00:32:21.301Z,5.22
2023-02-05T00:34:48.250Z,6.35
2023-02-05T00:37:15.253Z,6.13
2023-02-05T00:39:42.725Z,4.80
2023-02-05T00:42:09.620Z,5.55
2023-02-05T00:44:36.562Z,4.45
2023-02-05T00:47:03.551Z,4.88
2023-02-05T00:49:30.518Z,5.63
2023-02-05T00:51:57.441Z,5.25
2023-02-05T00:54:24.397Z,5.75
2023-02-05T00:56:52.159Z,5.32
2023-02-05T00:59:19.055Z,4.85
2023-02-05T01:01:46.021Z,6.03
2023-02-05T01:04:13.090Z,6.65
2023-02-05T01:06:40.699Z,5.53
2023-02-05T01:09:07.781Z,4.13
2023-02-05T01:11:34.965Z,4.88
2023-02-05T01:14:01.949Z,6.57
2023-02-05T01:16:28.848Z,6.05
2023-02-05T01:18:56.872Z,6.40
2023-02-05T01:21:25.098Z,5.95
2023-02-05T01:23:52.357Z,6.45
2023-02-05T01:26:19.528Z,5.45
2023-02-05T01:28:47.188Z,7.75
2023-02-05T01:31:14.294Z,5.63
2023-02-05T01:33:41.231Z,4.97
2023-02-05T01:36:08.487Z,5.97
2023-02-05T01:38:35.432Z,4.93
2023-02-05T01:41:02.378Z,6.22
2023-02-05T01:43:29.263Z,4.30
2023-02-05T01:46:23.720Z,6.10
2023-02-05T01:48:55.113Z,5.65
2023-02-05T01:51:23.189Z,5.95
2023-02-05T01:53:50.756Z,6.00
2023-02-05T01:56:42.961Z,4.72
2023-02-05T01:59:16.320Z,5.28
2023-02-05T02:01:44.479Z,6.30
2023-02-05T02:04:15.411Z,6.93
2023-02-05T02:06:42.334Z,6.18
2023-02-05T02:09:09.618Z,6.97
2023-02-05T02:11:41.561Z,5.35
2023-02-05T02:14:10.141Z,6.65
2023-02-05T02:16:39.260Z,5.70
2023-02-05T02:19:16.273Z,4.72
2023-02-05T02:22:11.193Z,5.45
2023-02-05T02:24:43.268Z,6.60
2023-02-05T02:27:28.410Z,5.78
2023-02-05T02:30:03.372Z,6.35
2023-02-05T02:32:36.221Z,4.95
2023-02-05T02:35:14.054Z,5.03
2023-02-05T02:37:46.026Z,5.18
2023-02-05T02:40:18.349Z,6.85
2023-02-05T02:42:57.908Z,6.68
2023-02-05T02:45:29.373Z,5.53
2023-02-05T02:48:00.227Z,6.18
2023-02-05T02:50:35.999Z,5.85
2023-02-05T02:53:09.177Z,6.50
2023-02-05T02:55:43.710Z,5.90
2023-02-05T02:58:18.464Z,5.57
2023-02-05T03:00:46.777Z,6.93
2023-02-05T03:03:17.962Z,5.78
2023-02-05T03:05:49.014Z,5.72
2023-02-05T03:08:27.806Z,6.60
2023-02-05T03:11:04.960Z,5.70
2023-02-05T03:13:32.454Z,7.10
2023-02-05T03:16:02.557Z,5.00
2023-02-05T03:18:30.345Z,5.43
2023-02-05T03:21:02.954Z,6.53
2023-02-05T03:23:31.732Z,5.18
2023-02-05T03:25:58.795Z,5.13
2023-02-05T03:28:36.424Z,5.40
2023-02-05T03:31:14.240Z,6.25
2023-02-05T03:33:47.109Z,5.65
2023-02-05T03:36:30.058Z,5.07
2023-02-05T03:39:06.328Z,5.57
2023-02-05T03:42:17.354Z,5.03
2023-02-05T03:44:53.627Z,3.63
2023-02-05T03:47:27.769Z,5.47
2023-02-05T03:50:12.635Z,4.20
2023-02-05T03:52:47.829Z,5.50
2023-02-05T03:55:28.489Z,4.38
2023-02-05T03:57:59.320Z,5.82
2023-02-05T04:00:27.775Z,4.95
2023-02-05T04:02:55.787Z,4.95
2023-02-05T04:05:26.929Z,5.20
2023-02-05T04:07:56.083Z,5.28
2023-02-05T04:10:27.534Z,4.80
2023-02-05T04:12:55.640Z,4.93
2023-02-05T04:15:24.107Z,3.97
2023-02-05T04:17:54.482Z,4.38
2023-02-05T04:20:21.644Z,4.32
2023-02-05T04:22:48.765Z,5.82
2023-02-05T04:25:16.281Z,6.00
2023-02-05T04:27:43.854Z,5.80
2023-02-05T04:30:12.034Z,5.22
2023-02-05T04:32:43.036Z,5.45
2023-02-05T04:35:10.720Z,5.10
2023-02-05T04:37:37.717Z,5.63
2023-02-05T04:40:06.802Z,5.60
2023-02-05T04:42:33.687Z,4.68
2023-02-05T04:45:00.653Z,4.38
2023-02-05T04:47:27.565Z,4.18
2023-02-05T04:49:54.489Z,6.18
2023-02-05T04:52:21.392Z,4.85
2023-02-05T04:54:48.265Z,5.38
2023-02-05T04:57:15.075Z,4.35
2023-02-05T04:59:42.065Z,5.18
2023-02-05T05:02:09.140Z,6.38
2023-02-05T05:04:36.942Z,4.88
2023-02-05T05:07:03.827Z,5.50
2023-02-05T05:09:30.700Z,5.07
2023-02-05T05:11:57.568Z,3.75
2023-02-05T05:14:24.621Z,4.38
2023-02-05T05:16:51.557Z,4.78
2023-02-05T05:19:18.417Z,4.43
2023-02-05T05:21:45.454Z,4.63
2023-02-05T05:24:12.457Z,4.10
2023-02-05T05:26:43.830Z,5.22
2023-02-05T05:29:14.858Z,5.88
2023-02-05T05:31:42.782Z,4.68
2023-02-05T05:34:09.784Z,5.13
2023-02-05T05:36:36.711Z,5.00
2023-02-05T05:39:22.259Z,4.50
2023-02-05T05:42:07.711Z,4.18
2023-02-05T05:44:34.592Z,5.55
2023-02-05T05:47:01.450Z,4.80
2023-02-05T05:49:28.342Z,4.70
2023-02-05T05:51:55.428Z,4.50
2023-02-05T05:54:22.319Z,4.90
2023-02-05T05:56:49.816Z,4.50
2023-02-05T05:59:16.993Z,4.45
2023-02-05T06:01:43.970Z,4.43
2023-02-05T06:04:10.963Z,4.75
2023-02-05T06:06:38.269Z,3.17
2023-02-05T06:09:05.242Z,4.40
2023-02-05T06:11:32.119Z,4.68
2023-02-05T06:13:59.255Z,4.50
2023-02-05T06:16:26.236Z,4.45
2023-02-05T06:18:53.830Z,4.45
2023-02-05T06:21:20.740Z,4.57
2023-02-05T06:23:47.693Z,5.45
2023-02-05T06:26:14.969Z,4.78
2023-02-05T06:28:41.795Z,5.10
2023-02-05T06:31:08.706Z,4.13
2023-02-05T06:33:35.672Z,4.35
2023-02-05T06:36:02.643Z,4.15
2023-02-05T06:38:29.535Z,4.07
2023-02-05T06:40:56.521Z,4.82
2023-02-05T06:43:23.407Z,4.50
2023-02-05T06:45:50.323Z,4.30
2023-02-05T06:48:18.305Z,4.07
2023-02-05T06:50:45.245Z,3.80
2023-02-05T06:53:12.252Z,4.03
2023-02-05T06:55:39.517Z,3.85
2023-02-05T06:58:07.811Z,3.58
2023-02-05T07:00:35.842Z,3.58
2023-02-05T07:03:03.261Z,3.55
2023-02-05T07:05:30.396Z,4.18
2023-02-05T07:07:57.344Z,3.88
2023-02-05T07:10:24.346Z,3.83
2023-02-05T07:12:51.254Z,4.47
2023-02-05T07:15:18.247Z,4.25
2023-02-05T07:17:45.212Z,2.83
2023-02-05T07:20:12.093Z,3.30
2023-02-05T07:22:38.999Z,3.85
2023-02-05T07:25:06.229Z,2.80
2023-02-05T07:27:33.141Z,3.33
2023-02-05T07:30:00.355Z,3.35
2023-02-05T07:32:27.295Z,3.17
2023-02-05T07:34:54.185Z,3.33
2023-02-05T07:37:21.575Z,2.67
2023-02-05T07:39:48.712Z,3.38
2023-02-05T07:42:15.737Z,3.75
2023-02-05T07:44:49.784Z,3.70
2023-02-05T07:47:16.618Z,3.50
2023-02-05T07:49:43.596Z,2.67
2023-02-05T07:52:10.491Z,3.67
2023-02-05T07:54:37.501Z,2.92
2023-02-05T07:57:06.810Z,2.83
2023-02-05T07:59:34.046Z,3.20
2023-02-05T08:02:00.925Z,3.60
2023-02-05T08:04:27.843Z,3.20
2023-02-05T08:06:54.795Z,3.13
2023-02-05T08:09:21.729Z,2.50
2023-02-05T08:11:48.596Z,3.50
2023-02-05T08:14:15.514Z,2.85
2023-02-05T08:16:42.431Z,3.30
2023-02-05T08:19:15.368Z,2.58
2023-02-05T08:21:42.495Z,2.20
2023-02-05T08:24:09.567Z,2.08
2023-02-05T08:26:36.785Z,2.85
2023-02-05T08:29:04.058Z,3.05
2023-02-05T08:31:31.044Z,3.00
2023-02-05T08:34:00.200Z,2.17
2023-02-05T08:36:28.024Z,2.08
2023-02-05T08:38:55.312Z,2.55
2023-02-05T08:41:22.852Z,2.75
2023-02-05T08:43:50.921Z,2.47
2023-02-05T08:46:21.977Z,2.30
2023-02-05T08:48:49.682Z,2.80
2023-02-05T08:51:17.749Z,2.95
2023-02-05T08:53:44.701Z,2.45
2023-02-05T08:56:14.164Z,2.88
2023-02-05T08:58:41.755Z,2.63
2023-02-05T09:01:18.922Z,2.30
2023-02-05T09:03:46.113Z,2.55
2023-02-05T09:06:14.971Z,2.40
2023-02-05T09:08:42.143Z,2.70
2023-02-05T09:11:09.400Z,2.03
2023-02-05T09:13:36.779Z,2.63
2023-02-05T09:16:03.843Z,2.83
2023-02-05T09:18:31.148Z,2.58
2023-02-05T09:20:58.427Z,2.63
2023-02-05T09:23:25.334Z,2.15
2023-02-05T09:25:52.275Z,3.22
2023-02-05T09:28:19.243Z,2.38
2023-02-05T09:30:46.841Z,2.85
2023-02-05T09:33:14.670Z,2.10
2023-02-05T09:35:42.331Z,1.92
2023-02-05T09:38:12.970Z,2.67
2023-02-05T09:41:00.271Z,2.95
2023-02-05T09:43:50.289Z,2.88
2023-02-05T09:46:26.379Z,2.83
2023-02-05T09:49:31.553Z,3.25
2023-02-05T09:52:05.188Z,2.47
2023-02-05T09:54:38.382Z,2.38
2023-02-05T09:57:13.986Z,3.03
2023-02-05T09:59:44.399Z,2.42
2023-02-05T10:02:50.018Z,2.22
2023-02-05T10:05:17.855Z,2.60
2023-02-05T10:08:02.750Z,3.00
2023-02-05T10:10:44.057Z,2.83
2023-02-05T10:13:17.112Z,2.13
2023-02-05T10:16:20.870Z,2.05
2023-02-05T10:18:59.933Z,2.60
2023-02-05T10:21:32.698Z,2.50
2023-02-05T10:24:11.556Z,2.38
2023-02-05T10:26:54.152Z,2.83
2023-02-05T10:29:53.209Z,2.28
2023-02-05T10:32:40.512Z,2.45
2023-02-05T10:35:24.463Z,2.08
2023-02-05T10:37:54.281Z,2.10
2023-02-05T10:40:44.159Z,2.17
2023-02-05T10:43:23.034Z,2.55
2023-02-05T10:45:51.491Z,2.53
2023-02-05T10:48:42.733Z,1.70
2023-02-05T10:51:15.968Z,2.88
2023-02-05T10:53:43.816Z,2.60
2023-02-05T10:56:19.244Z,2.20
2023-02-05T10:58:55.383Z,2.10
2023-02-05T11:01:32.057Z,2.10
2023-02-05T11:04:06.845Z,2.40
2023-02-05T11:06:45.530Z,2.20
2023-02-05T11:09:33.403Z,2.55
2023-02-05T11:12:04.674Z,2.28
2023-02-05T11:14:35.455Z,2.30
2023-02-05T11:17:15.078Z,2.67
2023-02-05T11:19:51.579Z,2.65
2023-02-05T11:22:36.221Z,2.90
2023-02-05T11:25:16.025Z,2.45
2023-02-05T11:27:58.970Z,2.90
2023-02-05T11:30:50.372Z,2.28
2023-02-05T11:33:22.933Z,2.63
2023-02-05T11:36:15.483Z,2.85
2023-02-05T11:38:46.367Z,2.05
2023-02-05T11:41:26.081Z,2.80
2023-02-05T11:43:54.177Z,3.28
2023-02-05T11:46:24.253Z,2.70
2023-02-05T11:48:53.938Z,2.75
2023-02-05T11:51:36.013Z,2.35
2023-02-05T11:54:11.688Z,2.30
2023-02-05T11:56:38.666Z,3.05
2023-02-05T11:59:21.060Z,2.67
2023-02-05T12:01:48.223Z,2.95
2023-02-05T12:04:19.347Z,2.05
2023-02-05T12:07:15.345Z,2.00
2023-02-05T12:09:42.253Z,2.10
2023-02-05T12:12:29.753Z,2.30
2023-02-05T12:15:13.714Z,2.58
2023-02-05T12:17:42.303Z,2.25
2023-02-05T12:20:21.678Z,2.42
2023-02-05T12:23:07.014Z,2.53
2023-02-05T12:26:12.169Z,2.13
2023-02-05T12:29:00.245Z,2.88
2023-02-05T12:31:36.155Z,2.70
2023-02-05T12:34:33.818Z,2.33
2023-02-05T12:37:24.877Z,2.08
2023-02-05T12:40:05.022Z,2.08
2023-02-05T12:42:52.355Z,1.77
2023-02-05T12:45:52.028Z,2.05
2023-02-05T12:48:18.918Z,2.40
2023-02-05T12:50:57.788Z,2.00
2023-02-05T12:53:24.675Z,1.70
2023-02-05T12:55:51.918Z,2.30
2023-02-05T12:58:20.862Z,2.60
2023-02-05T13:00:52.583Z,2.03
2023-02-05T13:03:22.328Z,2.67
2023-02-05T13:06:07.371Z,2.35
2023-02-05T13:08:37.379Z,4.63
2023-02-05T13:11:04.351Z,2.60
2023-02-05T13:13:37.270Z,2.63
2023-02-05T13:16:12.509Z,2.33
2023-02-05T13:18:43.703Z,2.83
2023-02-05T13:21:34.745Z,2.40
2023-02-05T13:24:40.423Z,2.03
2023-02-05T13:27:51.899Z,2.65
2023-02-05T13:30:24.704Z,3.05
2023-02-05T13:32:57.405Z,2.92
2023-02-05T13:35:27.027Z,4.30
2023-02-05T13:38:10.964Z,3.50
2023-02-05T13:41:08.044Z,3.90
2023-02-05T13:44:00.832Z,2.20
2023-02-05T13:46:53.688Z,2.20
2023-02-05T13:49:32.899Z,3.03
2023-02-05T13:52:25.411Z,2.40
2023-02-05T13:55:10.701Z,3.08
2023-02-05T13:58:02.195Z,2.78
2023-02-05T14:00:29.885Z,2.17
2023-02-05T14:02:58.949Z,2.95
2023-02-05T14:05:33.738Z,3.38
2023-02-05T14:08:03.326Z,3.90
2023-02-05T14:10:40.957Z,2.80
2023-02-05T14:13:24.649Z,4.07
2023-02-05T14:15:57.644Z,3.70
2023-02-05T14:18:40.057Z,3.75
2023-02-05T14:21:31.533Z,4.15
2023-02-05T14:24:03.953Z,3.25
2023-02-05T14:26:53.875Z,3.67
2023-02-05T14:29:42.930Z,4.35
2023-02-05T14:32:34.625Z,3.75
2023-02-05T14:35:01.581Z,4.78
2023-02-05T14:37:36.500Z,3.72
2023-02-05T14:40:22.439Z,3.67
2023-02-05T14:42:53.394Z,3.63
2023-02-05T14:45:24.885Z,3.60
2023-02-05T14:47:52.036Z,4.22
2023-02-05T14:50:23.105Z,3.35
2023-02-05T14:52:58.706Z,3.88
2023-02-05T14:55:31.504Z,3.97
2023-02-05T14:58:09.551Z,3.40
2023-02-05T15:00:44.403Z,4.55
2023-02-05T15:03:17.848Z,3.28
2023-02-05T15:05:44.871Z,4.38
2023-02-05T15:08:40.378Z,4.50
2023-02-05T15:11:19.337Z,3.30
2023-02-05T15:14:20.411Z,4.00
2023-02-05T15:17:05.970Z,3.13
2023-02-05T15:19:50.019Z,4.07
2023-02-05T15:22:35.828Z,3.13
2023-02-05T15:25:04.364Z,3.70
2023-02-05T15:27:49.810Z,3.53
2023-02-05T15:30:26.810Z,3.85
2023-02-05T15:33:01.034Z,3.97
2023-02-05T15:35:30.988Z,3.85
2023-02-05T15:38:03.321Z,3.42
2023-02-05T15:40:34.808Z,4.00
2023-02-05T15:43:15.192Z,4.72
2023-02-05T15:45:45.251Z,4.25
2023-02-05T15:48:12.237Z,3.67
2023-02-05T15:51:03.301Z,3.70
2023-02-05T15:53:49.667Z,2.88
2023-02-05T15:56:29.646Z,4.25
2023-02-05T15:59:15.541Z,4.70
2023-02-05T16:01:47.997Z,4.05
2023-02-05T16:04:34.801Z,4.10
2023-02-05T16:07:02.655Z,3.55
2023-02-05T16:09:31.397Z,3.67
2023-02-05T16:12:11.306Z,4.32
2023-02-05T16:14:38.394Z,3.53
2023-02-05T16:17:21.913Z,4.00
2023-02-05T16:20:21.570Z,4.38
2023-02-05T16:23:00.298Z,4.28
2023-02-05T16:25:46.772Z,4.22
2023-02-05T16:28:20.935Z,4.32
2023-02-05T16:30:52.349Z,4.00
2023-02-05T16:33:25.213Z,4.20
2023-02-05T16:35:53.531Z,3.97
2023-02-05T16:38:23.415Z,4.40
2023-02-05T16:40:53.750Z,4.38
2023-02-05T16:43:26.471Z,3.88
2023-02-05T16:46:08.984Z,4.13
2023-02-05T16:48:48.074Z,3.63
2023-02-05T16:51:37.572Z,3.90
2023-02-05T16:54:10.581Z,3.97
2023-02-05T16:56:44.619Z,3.78
2023-02-05T16:59:23.919Z,4.88
2023-02-05T17:01:52.663Z,3.97
2023-02-05T17:04:26.886Z,4.10
2023-02-05T17:06:56.972Z,3.83
2023-02-05T17:09:36.334Z,3.50
2023-02-05T17:12:22.062Z,3.97
2023-02-05T17:15:00.474Z,4.30
2023-02-05T17:17:29.189Z,3.50
2023-02-05T17:20:15.416Z,4.65
2023-02-05T17:23:00.679Z,3.78
2023-02-05T17:25:29.288Z,4.10
2023-02-05T17:27:56.461Z,3.22
2023-02-05T17:30:23.452Z,3.65
2023-02-05T17:32:51.256Z,3.70
2023-02-05T17:35:22.224Z,4.63
2023-02-05T17:37:49.309Z,4.25
2023-02-05T17:40:16.464Z,4.07
2023-02-05T17:42:46.053Z,4.00
2023-02-05T17:45:32.953Z,4.38
2023-02-05T17:47:59.917Z,3.97
2023-02-05T17:50:27.405Z,3.28
2023-02-05T17:52:55.254Z,4.47
2023-02-05T17:55:23.203Z,3.50
2023-02-05T17:57:50.225Z,4.53
2023-02-05T18:00:22.096Z,4.22
2023-02-05T18:02:49.787Z,4.93
2023-02-05T18:05:17.179Z,3.65
2023-02-05T18:07:58.583Z,3.85
2023-02-05T18:10:33.369Z,4.63
2023-02-05T18:13:00.927Z,4.20
2023-02-05T18:15:32.112Z,4.07
2023-02-05T18:17:59.049Z,4.28
2023-02-05T18:20:26.006Z,3.67
2023-02-05T18:22:52.943Z,3.03
2023-02-05T18:25:19.952Z,4.43
2023-02-05T18:27:48.974Z,5.15
2023-02-05T18:30:16.184Z,3.55
2023-02-05T18:32:43.506Z,4.07
2023-02-05T18:35:14.504Z,3.83
2023-02-05T18:37:43.274Z,4.28
2023-02-05T18:40:11.279Z,3.75
2023-02-05T18:42:38.252Z,3.90
2023-02-05T18:45:05.445Z,3.58
2023-02-05T18:47:32.320Z,4.03
2023-02-05T18:49:59.335Z,4.13
2023-02-05T18:52:28.692Z,3.80
2023-02-05T18:54:55.586Z,3.35
2023-02-05T18:57:22.512Z,4.43
2023-02-05T18:59:49.821Z,4.00
2023-02-05T19:02:16.733Z,4.10
2023-02-05T19:04:45.642Z,5.10
2023-02-05T19:07:12.586Z,5.25
2023-02-05T19:09:39.496Z,4.78
2023-02-05T19:12:06.639Z,3.50
2023-02-05T19:14:33.528Z,4.65
2023-02-05T19:17:00.484Z,3.72
2023-02-05T19:19:27.709Z,4.82
2023-02-05T19:22:00.121Z,3.72
2023-02-05T19:24:27.359Z,4.70
2023-02-05T19:26:56.634Z,4.35
2023-02-05T19:29:23.841Z,5.80
2023-02-05T19:31:53.402Z,4.15
2023-02-05T19:34:22.247Z,5.25
2023-02-05T19:36:49.181Z,4.72
2023-02-05T19:39:16.343Z,4.07
2023-02-05T19:41:48.391Z,5.50
2023-02-05T19:44:15.468Z,3.45
2023-02-05T19:46:48.859Z,4.93
2023-02-05T19:49:19.165Z,5.07
2023-02-05T19:51:51.990Z,4.95
2023-02-05T19:54:21.616Z,4.60
2023-02-05T19:56:49.039Z,5.53
2023-02-05T19:59:16.918Z,5.05
2023-02-05T20:01:45.130Z,4.63
2023-02-05T20:04:17.041Z,4.05
2023-02-05T20:06:46.342Z,4.20
2023-02-05T20:09:14.512Z,6.00
2023-02-05T20:11:43.908Z,5.43
2023-02-05T20:14:11.668Z,5.20
2023-02-05T20:16:41.883Z,5.45
2023-02-05T20:19:11.758Z,5.68
2023-02-05T20:21:39.327Z,5.97
2023-02-05T20:24:07.611Z,4.93
2023-02-05T20:26:35.398Z,4.97
2023-02-05T20:29:20.627Z,5.50
2023-02-05T20:31:49.987Z,4.38
2023-02-05T20:34:18.728Z,5.60
2023-02-05T20:36:47.321Z,4.70
2023-02-05T20:39:14.534Z,4.93
2023-02-05T20:41:41.441Z,4.55
2023-02-05T20:44:08.368Z,6.05
2023-02-05T20:46:35.812Z,6.03
2023-02-05T20:49:03.600Z,4.47
2023-02-05T20:51:30.714Z,5.57
2023-02-05T20:53:58.836Z,4.60
2023-02-05T20:56:27.888Z,5.40
2023-02-05T20:58:55.027Z,5.18
2023-02-05T21:01:23.435Z,4.95
2023-02-05T21:03:52.960Z,4.43
2023-02-05T21:06:22.214Z,5.63
2023-02-05T21:08:52.924Z,4.90
2023-02-05T21:11:21.423Z,6.20
2023-02-05T21:13:50.178Z,6.15
2023-02-05T21:16:19.396Z,5.65
2023-02-05T21:18:47.986Z,7.13
2023-02-05T21:21:21.485Z,5.25
2023-02-05T21:23:49.180Z,6.07
2023-02-05T21:26:25.600Z,5.47
2023-02-05T21:28:56.982Z,5.13
2023-02-05T21:31:25.906Z,5.40
2023-02-05T21:33:52.820Z,5.28
2023-02-05T21:36:20.529Z,6.40
2023-02-05T21:38:47.501Z,5.57
2023-02-05T21:41:17.554Z,5.18
2023-02-05T21:43:49.586Z,4.50
2023-02-05T21:46:16.912Z,6.10
2023-02-05T21:48:48.326Z,5.45
2023-02-05T21:51:16.077Z,6.30
2023-02-05T21:53:43.736Z,5.13
2023-02-05T21:56:13.457Z,6.25
2023-02-05T21:58:41.443Z,6.35
2023-02-05T22:01:13.606Z,6.05
2023-02-05T22:03:42.338Z,5.05
2023-02-05T22:06:09.656Z,5.40
2023-02-05T22:08:38.012Z,5.07
2023-02-05T22:11:07.473Z,6.57
2023-02-05T22:13:36.766Z,5.13
2023-02-05T22:16:08.953Z,7.43
2023-02-05T22:18:37.128Z,5.40
2023-02-05T22:21:12.902Z,5.22
2023-02-05T22:23:41.094Z,4.95
2023-02-05T22:26:09.546Z,6.10
2023-02-05T22:28:37.315Z,6.53
2023-02-05T22:31:09.893Z,5.78
2023-02-05T22:33:38.509Z,5.40
2023-02-05T22:36:07.598Z,4.57
2023-02-05T22:38:37.128Z,6.55
2023-02-05T22:41:15.781Z,7.47
2023-02-05T22:43:42.883Z,7.07
2023-02-05T22:46:13.244Z,5.88
2023-02-05T22:48:42.642Z,6.25
2023-02-05T22:51:12.879Z,5.47
2023-02-05T22:53:40.298Z,6.05
2023-02-05T22:56:09.930Z,8.05
2023-02-05T22:58:42.218Z,6.88
2023-02-05T23:01:09.161Z,6.82
2023-02-05T23:03:37.235Z,5.90
2023-02-05T23:06:28.479Z,7.25
2023-02-05T23:09:01.340Z,6.43
2023-02-05T23:11:30.166Z,5.90
2023-02-05T23:13:59.243Z,7.72
2023-02-05T23:16:31.168Z,5.97
2023-02-05T23:19:00.828Z,7.72
2023-02-05T23:21:29.906Z,4.45
2023-02-05T23:23:57.291Z,7.30
2023-02-05T23:26:26.639Z,3.97
2023-02-05T23:28:55.053Z,6.75
2023-02-05T23:31:22.800Z,6.10
2023-02-05T23:33:50.238Z,7.72
2023-02-05T23:36:17.218Z,6.93
2023-02-05T23:38:44.835Z,6.85
2023-02-05T23:41:12.415Z,7.43
2023-02-05T23:43:40.104Z,4.80
2023-02-05T23:46:07.998Z,5.93
2023-02-05T23:48:35.259Z,5.90
2023-02-05T23:51:02.352Z,6.55
2023-02-05T23:53:29.318Z,6.05
2023-02-05T23:55:56.237Z,6.47
2023-02-05T23:58:26.012Z,7.32
